sensor_id;sensor_type;location;lat;lon;timestamp;temperature;humidity
921;DHT22;447;51.332;6.778;2022-11-15T00:01:56;10.50;99.90
921;DHT22;447;51.332;6.778;2022-11-15T00:04:45;10.60;99.90
921;DHT22;447;51.332;6.778;2022-11-15T00:07:30;10.60;99.90
921;DHT22;447;51.332;6.778;2022-11-15T00:10:19;10.50;99.90
921;DHT22;447;51.332;6.778;2022-11-15T00:13:08;10.60;99.90
921;DHT22;447;51.332;6.778;2022-11-15T00:16:02;10.60;99.90
921;DHT22;447;51.332;6.778;2022-11-15T00:18:49;10.60;99.90
921;DHT22;447;51.332;6.778;2022-11-15T00:21:38;10.60;99.90
921;DHT22;447;51.332;6.778;2022-11-15T00:24:23;10.60;99.90
921;DHT22;447;51.332;6.778;2022-11-15T00:27:07;10.60;99.90
921;DHT22;447;51.332;6.778;2022-11-15T00:29:57;10.60;99.90
921;DHT22;447;51.332;6.778;2022-11-15T00:32:42;10.60;99.90
921;DHT22;447;51.332;6.778;2022-11-15T00:35:26;10.60;99.90
921;DHT22;447;51.332;6.778;2022-11-15T00:38:27;10.60;99.90
921;DHT22;447;51.332;6.778;2022-11-15T00:41:16;10.60;99.90
921;DHT22;447;51.332;6.778;2022-11-15T00:44:01;10.60;99.90
921;DHT22;447;51.332;6.778;2022-11-15T00:46:45;10.60;99.90
921;DHT22;447;51.332;6.778;2022-11-15T00:49:32;10.60;99.90
921;DHT22;447;51.332;6.778;2022-11-15T00:52:19;10.60;99.90
921;DHT22;447;51.332;6.778;2022-11-15T00:55:04;10.70;99.90
921;DHT22;447;51.332;6.778;2022-11-15T00:57:49;10.70;99.90
921;DHT22;447;51.332;6.778;2022-11-15T01:00:33;10.70;99.90
921;DHT22;447;51.332;6.778;2022-11-15T01:03:20;10.70;99.90
921;DHT22;447;51.332;6.778;2022-11-15T01:06:05;10.70;99.90
921;DHT22;447;51.332;6.778;2022-11-15T01:08:56;10.70;99.90
921;DHT22;447;51.332;6.778;2022-11-15T01:11:40;10.70;99.90
921;DHT22;447;51.332;6.778;2022-11-15T01:14:25;10.70;99.90
921;DHT22;447;51.332;6.778;2022-11-15T01:17:10;10.70;99.90
921;DHT22;447;51.332;6.778;2022-11-15T01:19:54;10.70;99.90
921;DHT22;447;51.332;6.778;2022-11-15T01:22:38;10.70;99.90
921;DHT22;447;51.332;6.778;2022-11-15T01:25:25;10.70;99.90
921;DHT22;447;51.332;6.778;2022-11-15T01:28:09;10.70;99.90
921;DHT22;447;51.332;6.778;2022-11-15T01:31:04;10.70;99.90
921;DHT22;447;51.332;6.778;2022-11-15T01:33:52;10.70;99.90
921;DHT22;447;51.332;6.778;2022-11-15T01:36:36;10.70;99.90
921;DHT22;447;51.332;6.778;2022-11-15T01:39:24;10.70;99.90
921;DHT22;447;51.332;6.778;2022-11-15T01:42:12;10.70;99.90
921;DHT22;447;51.332;6.778;2022-11-15T01:44:59;10.80;99.90
921;DHT22;447;51.332;6.778;2022-11-15T01:47:51;10.80;99.90
921;DHT22;447;51.332;6.778;2022-11-15T01:50:39;10.70;99.90
921;DHT22;447;51.332;6.778;2022-11-15T01:53:27;10.70;99.90
921;DHT22;447;51.332;6.778;2022-11-15T01:56:17;10.70;99.90
921;DHT22;447;51.332;6.778;2022-11-15T01:59:04;10.80;99.90
921;DHT22;447;51.332;6.778;2022-11-15T02:01:52;10.80;99.90
921;DHT22;447;51.332;6.778;2022-11-15T02:04:47;10.80;99.90
921;DHT22;447;51.332;6.778;2022-11-15T02:07:35;10.80;99.90
921;DHT22;447;51.332;6.778;2022-11-15T02:10:23;10.80;99.90
921;DHT22;447;51.332;6.778;2022-11-15T02:13:08;10.80;99.90
921;DHT22;447;51.332;6.778;2022-11-15T02:23:43;10.80;99.90
921;DHT22;447;51.332;6.778;2022-11-15T02:26:14;10.80;99.90
921;DHT22;447;51.332;6.778;2022-11-15T02:29:11;10.80;99.90
921;DHT22;447;51.332;6.778;2022-11-15T02:38:47;10.80;99.90
921;DHT22;447;51.332;6.778;2022-11-15T02:41:46;10.80;99.90
921;DHT22;447;51.332;6.778;2022-11-15T02:44:39;10.80;99.90
921;DHT22;447;51.332;6.778;2022-11-15T02:47:29;10.80;99.90
921;DHT22;447;51.332;6.778;2022-11-15T02:50:24;10.80;99.90
921;DHT22;447;51.332;6.778;2022-11-15T02:53:10;10.80;99.90
921;DHT22;447;51.332;6.778;2022-11-15T02:55:56;10.80;99.90
921;DHT22;447;51.332;6.778;2022-11-15T03:05:16;10.90;99.90
921;DHT22;447;51.332;6.778;2022-11-15T03:08:22;10.90;99.90
921;DHT22;447;51.332;6.778;2022-11-15T03:11:15;10.90;99.90
921;DHT22;447;51.332;6.778;2022-11-15T03:17:22;10.90;99.90
921;DHT22;447;51.332;6.778;2022-11-15T03:20:12;10.90;99.90
921;DHT22;447;51.332;6.778;2022-11-15T03:23:06;10.90;99.90
921;DHT22;447;51.332;6.778;2022-11-15T03:25:58;10.90;99.90
921;DHT22;447;51.332;6.778;2022-11-15T03:29:00;10.90;99.90
921;DHT22;447;51.332;6.778;2022-11-15T03:32:07;10.90;99.90
921;DHT22;447;51.332;6.778;2022-11-15T03:35:00;10.90;99.90
921;DHT22;447;51.332;6.778;2022-11-15T03:40:59;10.90;99.90
921;DHT22;447;51.332;6.778;2022-11-15T03:44:03;10.90;99.90
921;DHT22;447;51.332;6.778;2022-11-15T03:49:51;11.00;99.90
921;DHT22;447;51.332;6.778;2022-11-15T03:52:37;10.90;99.90
921;DHT22;447;51.332;6.778;2022-11-15T03:55:24;11.00;99.90
921;DHT22;447;51.332;6.778;2022-11-15T03:58:11;11.00;99.90
921;DHT22;447;51.332;6.778;2022-11-15T04:00:58;11.00;99.90
921;DHT22;447;51.332;6.778;2022-11-15T04:03:48;11.00;99.90
921;DHT22;447;51.332;6.778;2022-11-15T04:06:35;11.00;99.90
921;DHT22;447;51.332;6.778;2022-11-15T04:09:21;11.00;99.90
921;DHT22;447;51.332;6.778;2022-11-15T04:12:06;11.00;99.90
921;DHT22;447;51.332;6.778;2022-11-15T04:14:50;11.00;99.90
921;DHT22;447;51.332;6.778;2022-11-15T04:17:56;11.00;99.90
921;DHT22;447;51.332;6.778;2022-11-15T04:20:43;11.00;99.90
921;DHT22;447;51.332;6.778;2022-11-15T04:23:46;11.10;99.90
921;DHT22;447;51.332;6.778;2022-11-15T04:26:49;11.10;99.90
921;DHT22;447;51.332;6.778;2022-11-15T04:29:41;11.10;99.90
921;DHT22;447;51.332;6.778;2022-11-15T04:32:33;11.10;99.90
921;DHT22;447;51.332;6.778;2022-11-15T04:35:17;11.10;99.90
921;DHT22;447;51.332;6.778;2022-11-15T04:38:10;11.10;99.90
921;DHT22;447;51.332;6.778;2022-11-15T04:40:54;11.10;99.90
921;DHT22;447;51.332;6.778;2022-11-15T04:43:41;11.10;99.90
921;DHT22;447;51.332;6.778;2022-11-15T04:46:26;11.10;99.90
921;DHT22;447;51.332;6.778;2022-11-15T04:49:13;11.10;99.90
921;DHT22;447;51.332;6.778;2022-11-15T04:51:58;11.10;99.90
921;DHT22;447;51.332;6.778;2022-11-15T04:54:49;11.10;99.90
921;DHT22;447;51.332;6.778;2022-11-15T04:57:33;11.10;99.90
921;DHT22;447;51.332;6.778;2022-11-15T05:00:23;11.20;99.90
921;DHT22;447;51.332;6.778;2022-11-15T05:03:09;11.20;99.90
921;DHT22;447;51.332;6.778;2022-11-15T05:06:12;11.20;99.90
921;DHT22;447;51.332;6.778;2022-11-15T05:08:57;11.20;99.90
921;DHT22;447;51.332;6.778;2022-11-15T05:11:45;11.20;99.90
921;DHT22;447;51.332;6.778;2022-11-15T05:14:32;11.20;99.90
921;DHT22;447;51.332;6.778;2022-11-15T05:17:17;11.20;99.90
921;DHT22;447;51.332;6.778;2022-11-15T05:20:04;11.20;99.90
921;DHT22;447;51.332;6.778;2022-11-15T05:22:53;11.20;99.90
921;DHT22;447;51.332;6.778;2022-11-15T05:25:40;11.20;99.90
921;DHT22;447;51.332;6.778;2022-11-15T05:28:27;11.20;99.90
921;DHT22;447;51.332;6.778;2022-11-15T05:31:39;11.20;99.90
921;DHT22;447;51.332;6.778;2022-11-15T05:34:25;11.20;99.90
921;DHT22;447;51.332;6.778;2022-11-15T05:37:10;11.20;99.90
921;DHT22;447;51.332;6.778;2022-11-15T05:39:55;11.20;99.90
921;DHT22;447;51.332;6.778;2022-11-15T05:42:42;11.20;99.90
921;DHT22;447;51.332;6.778;2022-11-15T05:45:28;11.30;99.90
921;DHT22;447;51.332;6.778;2022-11-15T05:48:15;11.30;99.90
921;DHT22;447;51.332;6.778;2022-11-15T05:51:04;11.30;99.90
921;DHT22;447;51.332;6.778;2022-11-15T05:53:52;11.30;99.90
921;DHT22;447;51.332;6.778;2022-11-15T05:56:38;11.30;99.90
921;DHT22;447;51.332;6.778;2022-11-15T05:59:29;11.30;99.90
921;DHT22;447;51.332;6.778;2022-11-15T06:02:13;11.30;99.90
921;DHT22;447;51.332;6.778;2022-11-15T06:05:00;11.30;99.90
921;DHT22;447;51.332;6.778;2022-11-15T06:07:46;11.30;99.90
921;DHT22;447;51.332;6.778;2022-11-15T06:10:35;11.30;99.90
921;DHT22;447;51.332;6.778;2022-11-15T06:13:20;11.30;99.90
921;DHT22;447;51.332;6.778;2022-11-15T06:16:09;11.30;99.90
921;DHT22;447;51.332;6.778;2022-11-15T06:18:59;11.30;99.90
921;DHT22;447;51.332;6.778;2022-11-15T06:21:43;11.30;99.90
921;DHT22;447;51.332;6.778;2022-11-15T06:24:30;11.30;99.90
921;DHT22;447;51.332;6.778;2022-11-15T06:27:15;11.30;99.90
921;DHT22;447;51.332;6.778;2022-11-15T06:29:59;11.40;99.90
921;DHT22;447;51.332;6.778;2022-11-15T06:32:46;11.30;99.90
921;DHT22;447;51.332;6.778;2022-11-15T06:35:33;11.30;99.90
921;DHT22;447;51.332;6.778;2022-11-15T06:38:22;11.30;99.90
921;DHT22;447;51.332;6.778;2022-11-15T06:41:09;11.40;99.90
921;DHT22;447;51.332;6.778;2022-11-15T06:43:54;11.40;99.90
921;DHT22;447;51.332;6.778;2022-11-15T06:46:38;11.30;99.90
921;DHT22;447;51.332;6.778;2022-11-15T06:49:23;11.40;99.90
921;DHT22;447;51.332;6.778;2022-11-15T06:52:07;11.40;99.90
921;DHT22;447;51.332;6.778;2022-11-15T06:54:53;11.40;99.90
921;DHT22;447;51.332;6.778;2022-11-15T06:57:46;11.30;99.90
921;DHT22;447;51.332;6.778;2022-11-15T07:00:31;11.40;99.90
921;DHT22;447;51.332;6.778;2022-11-15T07:03:15;11.40;99.90
921;DHT22;447;51.332;6.778;2022-11-15T07:06:00;11.40;99.90
921;DHT22;447;51.332;6.778;2022-11-15T07:09:03;11.40;99.90
921;DHT22;447;51.332;6.778;2022-11-15T07:11:48;11.40;99.90
921;DHT22;447;51.332;6.778;2022-11-15T07:14:32;11.40;99.90
921;DHT22;447;51.332;6.778;2022-11-15T07:17:17;11.40;99.90
921;DHT22;447;51.332;6.778;2022-11-15T07:20:01;11.40;99.90
921;DHT22;447;51.332;6.778;2022-11-15T07:22:46;11.40;99.90
921;DHT22;447;51.332;6.778;2022-11-15T07:25:32;11.40;99.90
921;DHT22;447;51.332;6.778;2022-11-15T07:28:19;11.40;99.90
921;DHT22;447;51.332;6.778;2022-11-15T07:31:07;11.50;99.90
921;DHT22;447;51.332;6.778;2022-11-15T07:33:52;11.40;99.90
921;DHT22;447;51.332;6.778;2022-11-15T07:36:36;11.50;99.90
921;DHT22;447;51.332;6.778;2022-11-15T07:39:21;11.40;99.90
921;DHT22;447;51.332;6.778;2022-11-15T07:42:08;11.50;99.90
921;DHT22;447;51.332;6.778;2022-11-15T07:45:11;11.40;99.90
921;DHT22;447;51.332;6.778;2022-11-15T07:47:56;11.50;99.90
921;DHT22;447;51.332;6.778;2022-11-15T07:50:41;11.50;99.90
921;DHT22;447;51.332;6.778;2022-11-15T07:53:29;11.50;99.90
921;DHT22;447;51.332;6.778;2022-11-15T07:56:16;11.50;99.90
921;DHT22;447;51.332;6.778;2022-11-15T07:59:01;11.50;99.90
921;DHT22;447;51.332;6.778;2022-11-15T08:01:46;11.50;99.90
921;DHT22;447;51.332;6.778;2022-11-15T08:04:31;11.60;99.90
921;DHT22;447;51.332;6.778;2022-11-15T08:07:16;11.50;99.90
921;DHT22;447;51.332;6.778;2022-11-15T08:10:01;11.50;99.90
921;DHT22;447;51.332;6.778;2022-11-15T08:13:06;11.60;99.90
921;DHT22;447;51.332;6.778;2022-11-15T08:15:51;11.60;99.90
921;DHT22;447;51.332;6.778;2022-11-15T08:18:38;11.60;99.90
921;DHT22;447;51.332;6.778;2022-11-15T08:21:23;11.60;99.90
921;DHT22;447;51.332;6.778;2022-11-15T08:24:10;11.60;99.90
921;DHT22;447;51.332;6.778;2022-11-15T08:26:55;11.60;99.90
921;DHT22;447;51.332;6.778;2022-11-15T08:29:43;11.60;99.90
921;DHT22;447;51.332;6.778;2022-11-15T08:32:28;11.60;99.90
921;DHT22;447;51.332;6.778;2022-11-15T08:35:12;11.60;99.90
921;DHT22;447;51.332;6.778;2022-11-15T08:37:57;11.60;99.90
921;DHT22;447;51.332;6.778;2022-11-15T08:40:41;11.60;99.90
921;DHT22;447;51.332;6.778;2022-11-15T08:43:25;11.60;99.90
921;DHT22;447;51.332;6.778;2022-11-15T08:46:12;11.60;99.90
921;DHT22;447;51.332;6.778;2022-11-15T08:48:58;11.60;99.90
921;DHT22;447;51.332;6.778;2022-11-15T08:51:42;11.60;99.90
921;DHT22;447;51.332;6.778;2022-11-15T08:54:42;11.60;99.90
921;DHT22;447;51.332;6.778;2022-11-15T08:57:30;11.60;99.90
921;DHT22;447;51.332;6.778;2022-11-15T09:00:15;11.60;99.90
921;DHT22;447;51.332;6.778;2022-11-15T09:03:07;11.60;99.90
921;DHT22;447;51.332;6.778;2022-11-15T09:05:58;11.70;99.90
921;DHT22;447;51.332;6.778;2022-11-15T09:08:43;11.60;99.90
921;DHT22;447;51.332;6.778;2022-11-15T09:11:28;11.70;99.90
921;DHT22;447;51.332;6.778;2022-11-15T09:14:13;11.60;99.90
921;DHT22;447;51.332;6.778;2022-11-15T09:16:58;11.60;99.90
921;DHT22;447;51.332;6.778;2022-11-15T09:19:43;11.70;99.90
921;DHT22;447;51.332;6.778;2022-11-15T09:22:30;11.70;99.90
921;DHT22;447;51.332;6.778;2022-11-15T09:25:15;11.70;99.90
921;DHT22;447;51.332;6.778;2022-11-15T09:27:59;11.70;99.90
921;DHT22;447;51.332;6.778;2022-11-15T09:30:44;11.70;99.90
921;DHT22;447;51.332;6.778;2022-11-15T09:33:29;11.70;99.90
921;DHT22;447;51.332;6.778;2022-11-15T09:36:14;11.70;99.90
921;DHT22;447;51.332;6.778;2022-11-15T09:38:58;11.70;99.90
921;DHT22;447;51.332;6.778;2022-11-15T09:51:30;11.80;99.90
921;DHT22;447;51.332;6.778;2022-11-15T09:54:11;11.80;99.90
921;DHT22;447;51.332;6.778;2022-11-15T09:56:42;11.80;99.90
921;DHT22;447;51.332;6.778;2022-11-15T10:01:48;11.80;99.90
921;DHT22;447;51.332;6.778;2022-11-15T10:04:18;11.80;99.90
921;DHT22;447;51.332;6.778;2022-11-15T10:06:53;11.80;99.90
921;DHT22;447;51.332;6.778;2022-11-15T10:10:17;11.80;99.90
921;DHT22;447;51.332;6.778;2022-11-15T10:12:17;11.90;99.90
921;DHT22;447;51.332;6.778;2022-11-15T10:14:45;11.90;99.90
921;DHT22;447;51.332;6.778;2022-11-15T10:17:36;11.90;99.90
921;DHT22;447;51.332;6.778;2022-11-15T10:22:48;11.90;99.90
921;DHT22;447;51.332;6.778;2022-11-15T10:25:19;11.90;99.90
921;DHT22;447;51.332;6.778;2022-11-15T10:28:13;11.90;99.90
921;DHT22;447;51.332;6.778;2022-11-15T10:30:39;11.90;99.90
921;DHT22;447;51.332;6.778;2022-11-15T10:35:44;11.90;99.90
921;DHT22;447;51.332;6.778;2022-11-15T10:38:11;12.00;99.90
921;DHT22;447;51.332;6.778;2022-11-15T10:40:41;12.00;99.90
921;DHT22;447;51.332;6.778;2022-11-15T10:43:16;12.00;99.90
921;DHT22;447;51.332;6.778;2022-11-15T10:45:42;12.00;99.90
921;DHT22;447;51.332;6.778;2022-11-15T10:50:52;12.00;99.90
921;DHT22;447;51.332;6.778;2022-11-15T10:55:51;12.00;99.90
921;DHT22;447;51.332;6.778;2022-11-15T10:58:37;12.00;99.90
921;DHT22;447;51.332;6.778;2022-11-15T11:03:38;12.00;99.90
921;DHT22;447;51.332;6.778;2022-11-15T11:06:18;12.10;99.90
921;DHT22;447;51.332;6.778;2022-11-15T11:09:00;12.10;99.90
921;DHT22;447;51.332;6.778;2022-11-15T11:11:51;12.10;99.90
921;DHT22;447;51.332;6.778;2022-11-15T11:17:00;12.10;99.90
921;DHT22;447;51.332;6.778;2022-11-15T11:28:54;12.10;99.90
921;DHT22;447;51.332;6.778;2022-11-15T11:37:09;12.10;99.90
921;DHT22;447;51.332;6.778;2022-11-15T11:42:37;12.10;99.90
921;DHT22;447;51.332;6.778;2022-11-15T11:45:18;12.20;99.90
921;DHT22;447;51.332;6.778;2022-11-15T11:47:55;12.20;99.90
921;DHT22;447;51.332;6.778;2022-11-15T11:50:27;12.20;99.90
921;DHT22;447;51.332;6.778;2022-11-15T12:00:58;12.20;99.90
921;DHT22;447;51.332;6.778;2022-11-15T12:08:58;12.20;99.90
921;DHT22;447;51.332;6.778;2022-11-15T12:14:09;12.20;99.90
921;DHT22;447;51.332;6.778;2022-11-15T12:16:42;12.20;99.90
921;DHT22;447;51.332;6.778;2022-11-15T12:19:10;12.20;99.90
921;DHT22;447;51.332;6.778;2022-11-15T12:22:24;12.20;99.90
921;DHT22;447;51.332;6.778;2022-11-15T12:27:44;12.30;99.90
921;DHT22;447;51.332;6.778;2022-11-15T12:30:15;12.30;99.90
921;DHT22;447;51.332;6.778;2022-11-15T12:32:57;12.30;99.90
921;DHT22;447;51.332;6.778;2022-11-15T12:35:38;12.30;99.90
921;DHT22;447;51.332;6.778;2022-11-15T12:38:09;12.30;99.90
921;DHT22;447;51.332;6.778;2022-11-15T12:40:38;12.30;99.90
921;DHT22;447;51.332;6.778;2022-11-15T12:45:43;12.30;99.90
921;DHT22;447;51.332;6.778;2022-11-15T12:58:57;12.30;99.90
921;DHT22;447;51.332;6.778;2022-11-15T13:12:52;12.40;99.90
921;DHT22;447;51.332;6.778;2022-11-15T13:15:00;12.30;99.90
921;DHT22;447;51.332;6.778;2022-11-15T13:17:47;12.40;99.90
921;DHT22;447;51.332;6.778;2022-11-15T13:28:29;12.40;99.90
921;DHT22;447;51.332;6.778;2022-11-15T13:30:59;12.40;99.90
921;DHT22;447;51.332;6.778;2022-11-15T13:33:37;12.40;99.90
921;DHT22;447;51.332;6.778;2022-11-15T13:36:14;12.40;99.90
921;DHT22;447;51.332;6.778;2022-11-15T13:38:43;12.40;99.90
921;DHT22;447;51.332;6.778;2022-11-15T13:41:21;12.40;99.90
921;DHT22;447;51.332;6.778;2022-11-15T13:43:51;12.40;99.90
921;DHT22;447;51.332;6.778;2022-11-15T13:46:22;12.40;99.90
921;DHT22;447;51.332;6.778;2022-11-15T13:49:04;12.40;99.90
921;DHT22;447;51.332;6.778;2022-11-15T13:51:44;12.40;99.90
921;DHT22;447;51.332;6.778;2022-11-15T13:57:11;12.40;99.90
921;DHT22;447;51.332;6.778;2022-11-15T14:02:19;12.50;99.90
921;DHT22;447;51.332;6.778;2022-11-15T14:04:55;12.50;99.90
921;DHT22;447;51.332;6.778;2022-11-15T14:07:27;12.50;99.90
921;DHT22;447;51.332;6.778;2022-11-15T14:09:56;12.50;99.90
921;DHT22;447;51.332;6.778;2022-11-15T14:12:50;12.50;99.90
921;DHT22;447;51.332;6.778;2022-11-15T14:15:27;12.50;99.90
921;DHT22;447;51.332;6.778;2022-11-15T14:17:56;12.50;99.90
921;DHT22;447;51.332;6.778;2022-11-15T14:20:42;12.50;99.90
921;DHT22;447;51.332;6.778;2022-11-15T14:25:55;12.50;99.90
921;DHT22;447;51.332;6.778;2022-11-15T14:30:52;12.50;99.90
921;DHT22;447;51.332;6.778;2022-11-15T14:35:58;12.50;99.90
921;DHT22;447;51.332;6.778;2022-11-15T14:38:56;12.50;99.90
921;DHT22;447;51.332;6.778;2022-11-15T14:41:25;12.50;99.90
921;DHT22;447;51.332;6.778;2022-11-15T14:44:00;12.50;99.90
921;DHT22;447;51.332;6.778;2022-11-15T14:46:29;12.50;99.90
921;DHT22;447;51.332;6.778;2022-11-15T14:48:55;12.50;99.90
921;DHT22;447;51.332;6.778;2022-11-15T14:51:21;12.50;99.90
921;DHT22;447;51.332;6.778;2022-11-15T14:53:47;12.60;99.90
921;DHT22;447;51.332;6.778;2022-11-15T14:56:20;12.50;99.90
921;DHT22;447;51.332;6.778;2022-11-15T14:58:47;12.60;99.90
921;DHT22;447;51.332;6.778;2022-11-15T15:01:17;12.60;99.90
921;DHT22;447;51.332;6.778;2022-11-15T15:03:47;12.60;99.90
921;DHT22;447;51.332;6.778;2022-11-15T15:06:16;12.60;99.90
921;DHT22;447;51.332;6.778;2022-11-15T15:08:42;12.60;99.90
921;DHT22;447;51.332;6.778;2022-11-15T15:11:19;12.60;99.90
921;DHT22;447;51.332;6.778;2022-11-15T15:13:51;12.60;99.90
921;DHT22;447;51.332;6.778;2022-11-15T15:16:20;12.60;99.90
921;DHT22;447;51.332;6.778;2022-11-15T15:18:53;12.60;99.90
921;DHT22;447;51.332;6.778;2022-11-15T15:21:27;12.60;99.90
921;DHT22;447;51.332;6.778;2022-11-15T15:23:59;12.60;99.90
921;DHT22;447;51.332;6.778;2022-11-15T15:26:25;12.60;99.90
921;DHT22;447;51.332;6.778;2022-11-15T15:28:51;12.60;99.90
921;DHT22;447;51.332;6.778;2022-11-15T15:31:24;12.60;99.90
921;DHT22;447;51.332;6.778;2022-11-15T15:33:53;12.60;99.90
921;DHT22;447;51.332;6.778;2022-11-15T15:36:21;12.60;99.90
921;DHT22;447;51.332;6.778;2022-11-15T15:38:52;12.60;99.90
921;DHT22;447;51.332;6.778;2022-11-15T15:41:21;12.60;99.90
921;DHT22;447;51.332;6.778;2022-11-15T15:43:49;12.60;99.90
921;DHT22;447;51.332;6.778;2022-11-15T15:46:17;12.60;99.90
921;DHT22;447;51.332;6.778;2022-11-15T15:48:43;12.60;99.90
921;DHT22;447;51.332;6.778;2022-11-15T15:51:10;12.60;99.90
921;DHT22;447;51.332;6.778;2022-11-15T15:53:39;12.60;99.90
921;DHT22;447;51.332;6.778;2022-11-15T15:56:05;12.60;99.90
921;DHT22;447;51.332;6.778;2022-11-15T15:58:34;12.60;99.90
921;DHT22;447;51.332;6.778;2022-11-15T16:01:02;12.60;99.90
921;DHT22;447;51.332;6.778;2022-11-15T16:03:28;12.60;99.90
921;DHT22;447;51.332;6.778;2022-11-15T16:05:57;12.60;99.90
921;DHT22;447;51.332;6.778;2022-11-15T16:08:24;12.60;99.90
921;DHT22;447;51.332;6.778;2022-11-15T16:10:55;12.60;99.90
921;DHT22;447;51.332;6.778;2022-11-15T16:13:23;12.60;99.90
921;DHT22;447;51.332;6.778;2022-11-15T16:15:53;12.60;99.90
921;DHT22;447;51.332;6.778;2022-11-15T16:18:22;12.60;99.90
921;DHT22;447;51.332;6.778;2022-11-15T16:20:49;12.60;99.90
921;DHT22;447;51.332;6.778;2022-11-15T16:23:18;12.60;99.90
921;DHT22;447;51.332;6.778;2022-11-15T16:25:51;12.60;99.90
921;DHT22;447;51.332;6.778;2022-11-15T16:28:31;12.60;99.90
921;DHT22;447;51.332;6.778;2022-11-15T16:31:07;12.60;99.90
921;DHT22;447;51.332;6.778;2022-11-15T16:33:52;12.60;99.90
921;DHT22;447;51.332;6.778;2022-11-15T16:36:22;12.60;99.90
921;DHT22;447;51.332;6.778;2022-11-15T16:38:48;12.60;99.90
921;DHT22;447;51.332;6.778;2022-11-15T16:41:19;12.60;99.90
921;DHT22;447;51.332;6.778;2022-11-15T16:43:48;12.60;99.90
921;DHT22;447;51.332;6.778;2022-11-15T16:46:20;12.60;99.90
921;DHT22;447;51.332;6.778;2022-11-15T16:48:47;12.60;99.90
921;DHT22;447;51.332;6.778;2022-11-15T16:51:13;12.60;99.90
921;DHT22;447;51.332;6.778;2022-11-15T16:53:39;12.60;99.90
921;DHT22;447;51.332;6.778;2022-11-15T16:56:25;12.60;99.90
921;DHT22;447;51.332;6.778;2022-11-15T16:58:53;12.60;99.90
921;DHT22;447;51.332;6.778;2022-11-15T17:01:23;12.60;99.90
921;DHT22;447;51.332;6.778;2022-11-15T17:03:52;12.60;99.90
921;DHT22;447;51.332;6.778;2022-11-15T17:06:19;12.60;99.90
921;DHT22;447;51.332;6.778;2022-11-15T17:08:51;12.60;99.90
921;DHT22;447;51.332;6.778;2022-11-15T17:11:21;12.60;99.90
921;DHT22;447;51.332;6.778;2022-11-15T17:13:47;12.60;99.90
921;DHT22;447;51.332;6.778;2022-11-15T17:16:20;12.60;99.90
921;DHT22;447;51.332;6.778;2022-11-15T17:18:50;12.60;99.90
921;DHT22;447;51.332;6.778;2022-11-15T17:21:20;12.60;99.90
921;DHT22;447;51.332;6.778;2022-11-15T17:23:49;12.60;99.90
921;DHT22;447;51.332;6.778;2022-11-15T17:26:16;12.60;99.90
921;DHT22;447;51.332;6.778;2022-11-15T17:28:44;12.60;99.90
921;DHT22;447;51.332;6.778;2022-11-15T17:31:13;12.60;99.90
921;DHT22;447;51.332;6.778;2022-11-15T17:33:39;12.60;99.90
921;DHT22;447;51.332;6.778;2022-11-15T17:36:14;12.60;99.90
921;DHT22;447;51.332;6.778;2022-11-15T17:38:43;12.70;99.90
921;DHT22;447;51.332;6.778;2022-11-15T17:41:17;12.70;99.90
921;DHT22;447;51.332;6.778;2022-11-15T17:43:45;12.70;99.90
921;DHT22;447;51.332;6.778;2022-11-15T17:46:18;12.70;99.90
921;DHT22;447;51.332;6.778;2022-11-15T17:48:46;12.70;99.90
921;DHT22;447;51.332;6.778;2022-11-15T17:51:14;12.70;99.90
921;DHT22;447;51.332;6.778;2022-11-15T17:53:43;12.70;99.90
921;DHT22;447;51.332;6.778;2022-11-15T17:56:14;12.70;99.90
921;DHT22;447;51.332;6.778;2022-11-15T17:58:53;12.70;99.90
921;DHT22;447;51.332;6.778;2022-11-15T18:01:20;12.70;99.90
921;DHT22;447;51.332;6.778;2022-11-15T18:03:48;12.70;99.90
921;DHT22;447;51.332;6.778;2022-11-15T18:06:14;12.70;99.90
921;DHT22;447;51.332;6.778;2022-11-15T18:08:48;12.70;99.90
921;DHT22;447;51.332;6.778;2022-11-15T18:11:16;12.70;99.90
921;DHT22;447;51.332;6.778;2022-11-15T18:13:49;12.70;99.90
921;DHT22;447;51.332;6.778;2022-11-15T18:16:20;12.70;99.90
921;DHT22;447;51.332;6.778;2022-11-15T18:18:49;12.70;99.90
921;DHT22;447;51.332;6.778;2022-11-15T18:21:29;12.70;99.90
921;DHT22;447;51.332;6.778;2022-11-15T18:23:59;12.70;99.90
921;DHT22;447;51.332;6.778;2022-11-15T18:26:29;12.70;99.90
921;DHT22;447;51.332;6.778;2022-11-15T18:29:01;12.70;99.90
921;DHT22;447;51.332;6.778;2022-11-15T18:31:28;12.80;99.90
921;DHT22;447;51.332;6.778;2022-11-15T18:33:57;12.70;99.90
921;DHT22;447;51.332;6.778;2022-11-15T18:36:27;12.70;99.90
921;DHT22;447;51.332;6.778;2022-11-15T18:39:01;12.70;99.90
921;DHT22;447;51.332;6.778;2022-11-15T18:41:34;12.70;99.90
921;DHT22;447;51.332;6.778;2022-11-15T18:44:02;12.70;99.90
921;DHT22;447;51.332;6.778;2022-11-15T18:46:42;12.70;99.90
921;DHT22;447;51.332;6.778;2022-11-15T18:49:11;12.80;99.90
921;DHT22;447;51.332;6.778;2022-11-15T18:51:37;12.80;99.90
921;DHT22;447;51.332;6.778;2022-11-15T18:54:08;12.80;99.90
921;DHT22;447;51.332;6.778;2022-11-15T18:56:35;12.80;99.90
921;DHT22;447;51.332;6.778;2022-11-15T18:59:10;12.80;99.90
921;DHT22;447;51.332;6.778;2022-11-15T19:01:37;12.80;99.90
921;DHT22;447;51.332;6.778;2022-11-15T19:06:35;12.80;99.90
921;DHT22;447;51.332;6.778;2022-11-15T19:09:03;12.80;99.90
921;DHT22;447;51.332;6.778;2022-11-15T19:11:34;12.80;99.90
921;DHT22;447;51.332;6.778;2022-11-15T19:14:01;12.80;99.90
921;DHT22;447;51.332;6.778;2022-11-15T19:16:35;12.80;99.90
921;DHT22;447;51.332;6.778;2022-11-15T19:19:05;12.80;99.90
921;DHT22;447;51.332;6.778;2022-11-15T19:21:33;12.80;99.90
921;DHT22;447;51.332;6.778;2022-11-15T19:24:00;12.80;99.90
921;DHT22;447;51.332;6.778;2022-11-15T19:26:29;12.80;99.90
921;DHT22;447;51.332;6.778;2022-11-15T19:28:57;12.80;99.90
921;DHT22;447;51.332;6.778;2022-11-15T19:31:25;12.80;99.90
921;DHT22;447;51.332;6.778;2022-11-15T19:33:52;12.80;99.90
921;DHT22;447;51.332;6.778;2022-11-15T19:36:26;12.80;99.90
921;DHT22;447;51.332;6.778;2022-11-15T19:38:54;12.80;99.90
921;DHT22;447;51.332;6.778;2022-11-15T19:41:22;12.80;99.90
921;DHT22;447;51.332;6.778;2022-11-15T19:43:51;12.80;99.90
921;DHT22;447;51.332;6.778;2022-11-15T19:46:21;12.80;99.90
921;DHT22;447;51.332;6.778;2022-11-15T19:48:48;12.80;99.90
921;DHT22;447;51.332;6.778;2022-11-15T19:51:20;12.80;99.90
921;DHT22;447;51.332;6.778;2022-11-15T19:53:52;12.80;99.90
921;DHT22;447;51.332;6.778;2022-11-15T19:56:19;12.80;99.90
921;DHT22;447;51.332;6.778;2022-11-15T19:58:52;12.80;99.90
921;DHT22;447;51.332;6.778;2022-11-15T20:03:49;12.80;99.90
921;DHT22;447;51.332;6.778;2022-11-15T20:06:20;12.80;99.90
921;DHT22;447;51.332;6.778;2022-11-15T20:08:48;12.80;99.90
921;DHT22;447;51.332;6.778;2022-11-15T20:11:19;12.80;99.90
921;DHT22;447;51.332;6.778;2022-11-15T20:13:46;12.80;99.90
921;DHT22;447;51.332;6.778;2022-11-15T20:16:19;12.80;99.90
921;DHT22;447;51.332;6.778;2022-11-15T20:18:46;12.80;99.90
921;DHT22;447;51.332;6.778;2022-11-15T20:21:13;12.80;99.90
921;DHT22;447;51.332;6.778;2022-11-15T20:23:39;12.80;99.90